createdAt,value
2023-03-18T00:00:00.985Z,8.6
2023-03-18T00:01:09.312Z,8.6
2023-03-18T00:02:17.911Z,7.9
2023-03-18T00:03:26.270Z,7.9
2023-03-18T00:04:34.493Z,7.9
2023-03-18T00:05:43.049Z,7.7
2023-03-18T00:06:51.362Z,7.7
2023-03-18T00:07:59.677Z,7.7
2023-03-18T00:09:08.197Z,8.1
2023-03-18T00:10:16.559Z,8.1
2023-03-18T00:11:24.833Z,8.1
2023-03-18T00:12:33.379Z,8
2023-03-18T00:13:41.699Z,8
2023-03-18T00:14:50.053Z,8
2023-03-18T00:15:58.596Z,8.5
2023-03-18T00:17:06.927Z,8.5
2023-03-18T00:18:15.259Z,8.5
2023-03-18T00:19:23.794Z,7.9
2023-03-18T00:20:32.360Z,7.9
2023-03-18T00:21:40.446Z,7.9
2023-03-18T00:22:48.985Z,8.2
2023-03-18T00:23:57.335Z,8.2
2023-03-18T00:25:05.682Z,8.2
2023-03-18T00:26:14.229Z,9.2
2023-03-18T00:27:22.554Z,9.2
2023-03-18T00:28:30.892Z,9.2
2023-03-18T00:29:39.447Z,8.1
2023-03-18T00:30:47.782Z,8.1
2023-03-18T00:31:56.112Z,8.1
2023-03-18T00:33:04.667Z,8.5
2023-03-18T00:34:12.962Z,8.5
2023-03-18T00:35:21.329Z,8.5
2023-03-18T00:36:29.857Z,8.6
2023-03-18T00:37:38.182Z,8.6
2023-03-18T00:38:46.517Z,8.6
2023-03-18T00:39:55.040Z,8.5
2023-03-18T00:41:03.373Z,8.5
2023-03-18T00:42:11.732Z,8.5
2023-03-18T00:43:20.248Z,8.1
2023-03-18T00:44:28.585Z,8.1
2023-03-18T00:45:36.926Z,8.1
2023-03-18T00:46:45.479Z,8.4
2023-03-18T00:47:53.792Z,8.4
2023-03-18T00:49:02.127Z,8.4
2023-03-18T00:50:10.659Z,8.6
2023-03-18T00:51:18.997Z,8.6
2023-03-18T00:52:27.310Z,8.6
2023-03-18T00:53:35.855Z,8.7
2023-03-18T00:54:44.179Z,8.7
2023-03-18T00:55:52.527Z,8.7
2023-03-18T00:57:01.058Z,9.2
2023-03-18T00:58:09.403Z,9.2
2023-03-18T00:59:17.730Z,9.2
2023-03-18T01:00:26.365Z,9
2023-03-18T01:01:34.743Z,9
2023-03-18T01:02:42.938Z,9
2023-03-18T01:03:51.478Z,8.9
2023-03-18T01:04:59.812Z,8.9
2023-03-18T01:06:08.153Z,8.9
2023-03-18T01:07:16.709Z,8.2
2023-03-18T01:08:25.005Z,8.2
2023-03-18T01:09:33.349Z,8.2
2023-03-18T01:10:41.875Z,8.3
2023-03-18T01:11:50.200Z,8.3
2023-03-18T01:12:58.528Z,8.3
2023-03-18T01:14:07.072Z,8.2
2023-03-18T01:15:15.383Z,8.2
2023-03-18T01:16:23.751Z,8.2
2023-03-18T01:17:32.239Z,8.4
2023-03-18T01:18:40.566Z,8.4
2023-03-18T01:19:48.911Z,8.4
2023-03-18T01:20:57.440Z,8.4
2023-03-18T01:22:05.766Z,8.4
2023-03-18T01:23:14.094Z,8.4
2023-03-18T01:24:22.651Z,8.2
2023-03-18T01:25:30.981Z,8.2
2023-03-18T01:26:39.312Z,8.2
2023-03-18T01:27:47.849Z,7.9
2023-03-18T01:28:56.176Z,7.9
2023-03-18T01:30:04.535Z,7.9
2023-03-18T01:31:13.035Z,8.1
2023-03-18T01:32:21.363Z,8.1
2023-03-18T01:33:29.707Z,8.1
2023-03-18T01:34:38.235Z,10
2023-03-18T01:35:46.579Z,10
2023-03-18T01:36:54.893Z,10
2023-03-18T01:38:03.413Z,8.5
2023-03-18T01:39:11.746Z,8.5
2023-03-18T01:40:20.086Z,8.5
2023-03-18T01:41:28.629Z,7.5
2023-03-18T01:42:36.956Z,7.5
2023-03-18T01:43:45.286Z,7.5
2023-03-18T01:44:53.838Z,8.1
2023-03-18T01:46:02.219Z,8.1
2023-03-18T01:47:10.507Z,8.1
2023-03-18T01:48:19.058Z,8.2
2023-03-18T01:49:27.375Z,8.2
2023-03-18T01:50:35.715Z,8.2
2023-03-18T01:51:44.262Z,7.8
2023-03-18T01:52:52.603Z,7.8
2023-03-18T01:54:00.920Z,7.8
2023-03-18T01:55:09.442Z,7.5
2023-03-18T01:56:17.766Z,7.5
2023-03-18T01:57:26.096Z,7.5
2023-03-18T01:58:34.627Z,7.8
2023-03-18T01:59:42.999Z,7.8
2023-03-18T02:00:51.386Z,7.8
2023-03-18T02:01:59.876Z,7.2
2023-03-18T02:03:08.170Z,7.2
2023-03-18T02:05:17.376Z,8
2023-03-18T02:06:25.723Z,8
2023-03-18T02:07:34.047Z,8
2023-03-18T02:08:42.582Z,8.1
2023-03-18T02:09:50.930Z,8.1
2023-03-18T02:10:59.264Z,8.1
2023-03-18T02:12:07.808Z,7.5
2023-03-18T02:13:16.121Z,7.5
2023-03-18T02:14:24.430Z,7.5
2023-03-18T02:15:32.984Z,7.6
2023-03-18T02:16:41.332Z,7.6
2023-03-18T02:17:49.680Z,7.6
2023-03-18T02:18:58.188Z,7.1
2023-03-18T02:20:06.522Z,7.1
2023-03-18T02:21:14.851Z,7.1
2023-03-18T02:22:23.374Z,7.7
2023-03-18T02:23:31.737Z,7.7
2023-03-18T02:24:40.062Z,7.7
2023-03-18T02:25:48.612Z,7.8
2023-03-18T02:26:56.942Z,7.8
2023-03-18T02:28:05.259Z,7.8
2023-03-18T02:29:13.785Z,7.7
2023-03-18T02:30:22.119Z,7.7
2023-03-18T02:31:30.438Z,7.7
2023-03-18T02:32:39.007Z,8.3
2023-03-18T02:33:47.322Z,8.3
2023-03-18T02:34:55.613Z,8.3
2023-03-18T02:36:04.144Z,8.1
2023-03-18T02:37:12.477Z,8.1
2023-03-18T02:38:20.794Z,8.1
2023-03-18T02:39:29.319Z,7.7
2023-03-18T02:40:37.651Z,7.7
2023-03-18T02:41:46.030Z,7.7
2023-03-18T02:42:54.551Z,7.7
2023-03-18T02:44:02.894Z,7.7
2023-03-18T02:45:11.236Z,7.7
2023-03-18T02:46:19.876Z,8
2023-03-18T02:47:28.083Z,8
2023-03-18T02:48:36.406Z,8
2023-03-18T02:49:44.964Z,8.5
2023-03-18T02:50:53.280Z,8.5
2023-03-18T02:52:01.606Z,8.5
2023-03-18T02:53:10.136Z,7.5
2023-03-18T02:54:18.468Z,7.5
2023-03-18T02:55:26.794Z,7.5
2023-03-18T02:56:35.330Z,8.2
2023-03-18T02:57:43.679Z,8.2
2023-03-18T02:58:51.979Z,8.2
2023-03-18T03:00:00.513Z,7.7
2023-03-18T03:01:08.879Z,7.7
2023-03-18T03:02:17.237Z,7.7
2023-03-18T03:03:25.887Z,5.8
2023-03-18T03:04:34.041Z,5.8
2023-03-18T03:05:42.412Z,5.8
2023-03-18T03:06:50.931Z,5.5
2023-03-18T03:07:59.244Z,5.5
2023-03-18T03:09:07.586Z,5.5
2023-03-18T03:10:16.119Z,5.8
2023-03-18T03:11:24.440Z,5.8
2023-03-18T03:12:32.773Z,5.8
2023-03-18T03:13:41.289Z,6.5
2023-03-18T03:14:49.626Z,6.5
2023-03-18T03:15:58.016Z,6.5
2023-03-18T03:17:06.499Z,7.7
2023-03-18T03:18:14.845Z,7.7
2023-03-18T03:19:23.165Z,7.7
2023-03-18T03:20:32.009Z,7.2
2023-03-18T03:21:40.080Z,7.2
2023-03-18T03:22:48.377Z,7.2
2023-03-18T03:23:56.908Z,6.9
2023-03-18T03:25:05.258Z,6.9
2023-03-18T03:26:13.573Z,6.9
2023-03-18T03:27:22.114Z,6
2023-03-18T03:28:30.450Z,6
2023-03-18T03:29:38.768Z,6
2023-03-18T03:30:47.335Z,6.1
2023-03-18T03:31:55.652Z,6.1
2023-03-18T03:33:04.126Z,6.1
2023-03-18T03:34:12.540Z,6
2023-03-18T03:35:20.856Z,6
2023-03-18T03:36:29.191Z,6
2023-03-18T03:37:37.756Z,6.1
2023-03-18T03:38:46.053Z,6.1
2023-03-18T03:39:54.390Z,6.1
2023-03-18T03:41:02.929Z,6.3
2023-03-18T03:42:11.263Z,6.3
2023-03-18T03:43:19.595Z,6.3
2023-03-18T03:44:28.130Z,6.7
2023-03-18T03:45:36.457Z,6.7
2023-03-18T03:46:44.850Z,6.7
2023-03-18T03:47:53.310Z,5.9
2023-03-18T03:49:01.630Z,5.9
2023-03-18T03:50:09.960Z,5.9
2023-03-18T03:51:18.515Z,6.2
2023-03-18T03:52:26.839Z,6.2
2023-03-18T03:53:35.190Z,6.2
2023-03-18T03:54:43.705Z,5.7
2023-03-18T03:55:52.040Z,5.7
2023-03-18T03:57:00.364Z,5.7
2023-03-18T03:58:08.888Z,5.5
2023-03-18T03:59:17.225Z,5.5
2023-03-18T04:00:25.567Z,5.5
2023-03-18T04:01:34.097Z,5.6
2023-03-18T04:02:42.467Z,5.6
2023-03-18T04:03:50.789Z,5.6
2023-03-18T04:04:59.274Z,5.5
2023-03-18T04:06:07.629Z,5.5
2023-03-18T04:07:15.939Z,5.5
2023-03-18T04:08:24.475Z,6.7
2023-03-18T04:09:32.846Z,6.7
2023-03-18T04:10:41.182Z,6.7
2023-03-18T04:11:49.692Z,5.3
2023-03-18T04:12:58.041Z,5.3
2023-03-18T04:14:06.360Z,5.3
2023-03-18T04:15:14.906Z,5.7
2023-03-18T04:16:23.333Z,5.7
2023-03-18T04:17:31.565Z,5.7
2023-03-18T04:18:40.096Z,5.2
2023-03-18T04:19:48.415Z,5.2
2023-03-18T04:20:56.760Z,5.2
2023-03-18T04:22:05.272Z,5.6
2023-03-18T04:23:13.618Z,5.6
2023-03-18T04:24:21.954Z,5.6
2023-03-18T04:25:30.520Z,6
2023-03-18T04:26:38.819Z,6
2023-03-18T04:27:47.137Z,6
2023-03-18T04:28:55.667Z,5.2
2023-03-18T04:30:04.007Z,5.2
2023-03-18T04:31:12.346Z,5.2
2023-03-18T04:32:20.858Z,5.6
2023-03-18T04:33:29.197Z,5.6
2023-03-18T04:34:37.531Z,5.6
2023-03-18T04:35:46.096Z,5.4
2023-03-18T04:36:54.389Z,5.4
2023-03-18T04:38:02.725Z,5.4
2023-03-18T04:39:11.259Z,5.5
2023-03-18T04:40:19.583Z,5.5
2023-03-18T04:41:27.943Z,5.5
2023-03-18T04:42:36.438Z,5.7
2023-03-18T04:43:44.812Z,5.7
2023-03-18T04:44:53.103Z,5.7
2023-03-18T04:46:01.629Z,5.7
2023-03-18T04:47:09.964Z,5.7
2023-03-18T04:48:18.285Z,5.7
2023-03-18T04:49:26.807Z,5.5
2023-03-18T04:50:35.153Z,5.5
2023-03-18T04:51:43.467Z,5.5
2023-03-18T04:52:51.995Z,5.3
2023-03-18T04:54:00.313Z,5.3
2023-03-18T04:55:08.648Z,5.3
2023-03-18T04:56:17.193Z,5.6
2023-03-18T04:57:25.533Z,5.6
2023-03-18T04:58:33.823Z,5.6
2023-03-18T04:59:42.365Z,5.8
2023-03-18T05:00:50.761Z,5.8
2023-03-18T05:01:59.038Z,5.8
2023-03-18T05:03:07.568Z,5.2
2023-03-18T05:04:15.938Z,5.2
2023-03-18T05:05:24.212Z,5.2
2023-03-18T05:06:32.764Z,5.2
2023-03-18T05:07:41.095Z,5.2
2023-03-18T05:08:49.449Z,5.2
2023-03-18T05:09:57.958Z,5.3
2023-03-18T05:11:06.307Z,5.3
2023-03-18T05:12:14.633Z,5.3
2023-03-18T05:13:23.172Z,6
2023-03-18T05:14:31.492Z,6
2023-03-18T05:15:39.816Z,6
2023-03-18T05:16:48.382Z,6.2
2023-03-18T05:17:56.674Z,6.2
2023-03-18T05:19:04.993Z,6.2
2023-03-18T05:20:13.559Z,6.3
2023-03-18T05:21:21.857Z,6.3
2023-03-18T05:22:30.166Z,6.3
2023-03-18T05:23:38.692Z,6.6
2023-03-18T05:24:47.031Z,6.6
2023-03-18T05:25:55.376Z,6.6
2023-03-18T05:27:03.974Z,6.6
2023-03-18T05:28:12.247Z,6.6
2023-03-18T05:29:20.579Z,6.6
2023-03-18T05:30:29.112Z,7.1
2023-03-18T05:31:37.516Z,7.1
2023-03-18T05:32:45.797Z,7.1
2023-03-18T05:33:54.283Z,6.4
2023-03-18T05:35:02.606Z,6.4
2023-03-18T05:36:10.974Z,6.4
2023-03-18T05:37:19.462Z,6.7
2023-03-18T05:38:27.791Z,6.7
2023-03-18T05:39:36.113Z,6.7
2023-03-18T05:40:44.646Z,6.7
2023-03-18T05:41:52.988Z,6.7
2023-03-18T05:43:01.304Z,6.7
2023-03-18T05:44:09.837Z,6.3
2023-03-18T05:45:18.194Z,6.3
2023-03-18T05:46:26.566Z,6.3
2023-03-18T05:47:35.013Z,6.2
2023-03-18T05:48:43.336Z,6.2
2023-03-18T05:49:51.659Z,6.2
2023-03-18T05:51:00.218Z,6.4
2023-03-18T05:52:08.537Z,6.4
2023-03-18T05:53:16.893Z,6.4
2023-03-18T05:54:25.422Z,7.3
2023-03-18T05:55:34.044Z,7.3
2023-03-18T05:56:42.096Z,7.3
2023-03-18T05:57:50.639Z,6.3
2023-03-18T05:58:58.959Z,6.3
2023-03-18T06:00:07.302Z,6.3
2023-03-18T06:01:15.845Z,6.2
2023-03-18T06:02:24.166Z,6.2
2023-03-18T06:03:32.547Z,6.2
2023-03-18T06:04:41.024Z,6.9
2023-03-18T06:05:49.842Z,6.9
2023-03-18T06:06:58.172Z,6.9
2023-03-18T06:08:07.247Z,6.1
2023-03-18T06:09:15.018Z,6.1
2023-03-18T06:10:23.357Z,6.1
2023-03-18T06:11:31.893Z,6.2
2023-03-18T06:12:40.233Z,6.2
2023-03-18T06:13:48.551Z,6.2
2023-03-18T06:14:57.084Z,6.2
2023-03-18T06:16:05.411Z,6.2
2023-03-18T06:17:13.876Z,6.2
2023-03-18T06:18:22.279Z,6.4
2023-03-18T06:19:30.597Z,6.4
2023-03-18T06:20:38.933Z,6.4
2023-03-18T06:21:47.476Z,6.3
2023-03-18T06:22:55.814Z,6.3
2023-03-18T06:24:04.155Z,6.3
2023-03-18T06:25:12.700Z,6.2
2023-03-18T06:26:21.039Z,6.2
2023-03-18T06:27:29.389Z,6.2
2023-03-18T06:28:37.901Z,6.5
2023-03-18T06:29:46.250Z,6.5
2023-03-18T06:30:54.632Z,6.5
2023-03-18T06:32:03.117Z,6.4
2023-03-18T06:33:11.514Z,6.4
2023-03-18T06:34:19.777Z,6.4
2023-03-18T06:35:28.305Z,6.3
2023-03-18T06:36:36.647Z,6.3
2023-03-18T06:37:44.954Z,6.3
2023-03-18T06:38:53.505Z,6.7
2023-03-18T06:40:01.997Z,6.7
2023-03-18T06:41:10.262Z,6.7
2023-03-18T06:42:18.787Z,6.9
2023-03-18T06:43:27.137Z,6.9
2023-03-18T06:44:35.461Z,6.9
2023-03-18T06:45:43.990Z,6.7
2023-03-18T06:46:52.316Z,6.7
2023-03-18T06:48:00.626Z,6.7
2023-03-18T06:49:09.324Z,7
2023-03-18T06:50:17.480Z,7
2023-03-18T06:51:25.787Z,7
2023-03-18T06:52:34.313Z,7.7
2023-03-18T06:53:42.642Z,7.7
2023-03-18T06:54:50.946Z,7.7
2023-03-18T06:55:59.484Z,8
2023-03-18T06:57:07.811Z,8
2023-03-18T06:58:16.142Z,8
2023-03-18T06:59:24.675Z,6.9
2023-03-18T07:00:33.168Z,6.9
2023-03-18T07:01:41.514Z,6.9
2023-03-18T07:02:49.877Z,6
2023-03-18T07:03:58.233Z,6
2023-03-18T07:05:06.547Z,6
2023-03-18T07:06:15.048Z,6.1
2023-03-18T07:07:23.367Z,6.1
2023-03-18T07:08:31.692Z,6.1
2023-03-18T07:09:41.874Z,5.9
2023-03-18T07:10:51.175Z,5.9
2023-03-18T07:11:59.500Z,5.9
2023-03-18T07:13:08.051Z,6.7
2023-03-18T07:14:16.363Z,6.7
2023-03-18T07:15:24.684Z,6.7
2023-03-18T07:16:33.418Z,7.1
2023-03-18T07:17:41.728Z,7.1
2023-03-18T07:18:50.125Z,7.1
2023-03-18T07:19:58.691Z,7.2
2023-03-18T07:21:07.052Z,7.2
2023-03-18T07:22:15.364Z,7.2
2023-03-18T07:23:23.904Z,7.4
2023-03-18T07:24:32.227Z,7.4
2023-03-18T07:25:40.621Z,7.4
2023-03-18T07:26:49.167Z,8.2
2023-03-18T07:27:57.487Z,8.2
2023-03-18T07:29:05.887Z,8.2
2023-03-18T07:30:14.361Z,8
2023-03-18T07:31:22.796Z,8
2023-03-18T07:32:31.027Z,8
2023-03-18T07:33:39.550Z,8
2023-03-18T07:34:47.876Z,8
2023-03-18T07:35:56.200Z,8
2023-03-18T07:37:04.754Z,7.7
2023-03-18T07:38:13.044Z,7.7
2023-03-18T07:39:21.369Z,7.7
2023-03-18T07:40:29.963Z,8.2
2023-03-18T07:41:38.234Z,8.2
2023-03-18T07:42:46.592Z,8.2
2023-03-18T07:43:55.100Z,7
2023-03-18T07:45:03.420Z,7
2023-03-18T07:46:11.785Z,7
2023-03-18T07:47:20.298Z,7.7
2023-03-18T07:48:28.613Z,7.7
2023-03-18T07:49:36.954Z,7.7
2023-03-18T07:50:45.498Z,7.7
2023-03-18T07:51:53.818Z,7.7
2023-03-18T07:53:02.167Z,7.7
2023-03-18T07:54:10.666Z,6.8
2023-03-18T07:55:19.049Z,6.8
2023-03-18T07:56:27.383Z,6.8
2023-03-18T07:57:35.942Z,8.6
2023-03-18T07:58:44.266Z,8.6
2023-03-18T07:59:52.607Z,8.6
2023-03-18T08:01:01.160Z,6.8
2023-03-18T08:02:09.496Z,6.8
2023-03-18T08:03:17.817Z,6.8
2023-03-18T08:04:26.491Z,5.7
2023-03-18T08:05:34.972Z,5.7
2023-03-18T08:06:43.048Z,5.7
2023-03-18T08:07:51.575Z,6
2023-03-18T08:08:59.912Z,6
2023-03-18T08:10:08.217Z,6
2023-03-18T08:11:16.757Z,6
2023-03-18T08:12:25.077Z,6
2023-03-18T08:13:33.420Z,6
2023-03-18T08:14:41.944Z,6
2023-03-18T08:15:50.290Z,6
2023-03-18T08:16:58.637Z,6
2023-03-18T08:18:09.226Z,6
2023-03-18T08:19:15.498Z,6
2023-03-18T08:20:23.845Z,6
2023-03-18T08:21:32.369Z,5.2
2023-03-18T08:22:40.716Z,5.2
2023-03-18T08:23:49.028Z,5.2
2023-03-18T08:24:57.586Z,4.6
2023-03-18T08:26:05.900Z,4.6
2023-03-18T08:27:14.247Z,4.6
2023-03-18T08:28:22.792Z,5.5
2023-03-18T08:29:31.105Z,5.5
2023-03-18T08:30:39.449Z,5.5
2023-03-18T08:31:47.978Z,5.3
2023-03-18T08:32:56.403Z,5.3
2023-03-18T08:34:04.618Z,5.3
2023-03-18T08:35:13.147Z,5.1
2023-03-18T08:36:21.473Z,5.1
2023-03-18T08:37:29.793Z,5.1
2023-03-18T08:38:38.324Z,5
2023-03-18T08:39:46.678Z,5
2023-03-18T08:40:55.020Z,5
2023-03-18T08:42:03.533Z,4.5
2023-03-18T08:43:11.866Z,4.5
2023-03-18T08:44:20.180Z,4.5
2023-03-18T08:45:28.720Z,4.2
2023-03-18T08:46:37.023Z,4.2
2023-03-18T08:47:45.369Z,4.2
2023-03-18T08:48:53.872Z,4.1
2023-03-18T08:50:02.196Z,4.1
2023-03-18T08:51:10.549Z,4.1
2023-03-18T08:52:19.069Z,4.1
2023-03-18T08:53:27.402Z,4.1
2023-03-18T08:54:35.751Z,4.1
2023-03-18T08:55:44.277Z,3.3
2023-03-18T08:56:52.604Z,3.3
2023-03-18T08:58:00.914Z,3.3
2023-03-18T08:59:09.420Z,3.6
2023-03-18T09:00:17.749Z,3.6
2023-03-18T09:01:26.143Z,3.6
2023-03-18T09:02:34.668Z,3.1
2023-03-18T09:03:42.983Z,3.1
2023-03-18T09:04:51.281Z,3.1
2023-03-18T09:05:59.797Z,2.9
2023-03-18T09:07:08.094Z,2.9
2023-03-18T09:08:16.414Z,2.9
2023-03-18T09:09:37.315Z,3
2023-03-18T09:10:33.298Z,3
2023-03-18T09:11:41.608Z,3
2023-03-18T09:12:50.158Z,2.7
2023-03-18T09:13:58.493Z,2.7
2023-03-18T09:15:06.815Z,2.7
2023-03-18T09:16:15.458Z,7.2
2023-03-18T09:17:35.245Z,7.2
2023-03-18T09:18:32.034Z,7.2
2023-03-18T09:19:40.575Z,3.9
2023-03-18T09:20:48.921Z,3.9
2023-03-18T09:21:57.254Z,3.9
2023-03-18T09:23:05.778Z,2.9
2023-03-18T09:24:14.120Z,2.9
2023-03-18T09:25:22.464Z,2.9
2023-03-18T09:26:30.992Z,2.8
2023-03-18T09:27:39.309Z,2.8
2023-03-18T09:28:47.754Z,2.8
2023-03-18T09:29:56.165Z,3.6
2023-03-18T09:31:04.629Z,3.6
2023-03-18T09:32:12.830Z,3.6
2023-03-18T09:33:21.372Z,3
2023-03-18T09:34:29.694Z,3
2023-03-18T09:35:38.113Z,3
2023-03-18T09:36:46.571Z,4.5
2023-03-18T09:37:54.879Z,4.5
2023-03-18T09:39:03.214Z,4.5
2023-03-18T09:40:11.793Z,3.4
2023-03-18T09:41:20.107Z,3.4
2023-03-18T09:42:28.412Z,3.4
2023-03-18T09:43:36.983Z,11.1
2023-03-18T09:44:45.378Z,11.1
2023-03-18T09:45:55.931Z,11.1
2023-03-18T09:47:02.407Z,17.5
2023-03-18T09:48:10.576Z,17.5
2023-03-18T09:49:18.902Z,17.5
2023-03-18T09:50:27.463Z,8.2
2023-03-18T09:51:35.789Z,8.2
2023-03-18T09:52:44.177Z,8.2
2023-03-18T09:53:52.766Z,19.1
2023-03-18T09:55:01.092Z,19.1
2023-03-18T09:56:09.420Z,19.1
2023-03-18T09:57:17.981Z,100.4
2023-03-18T09:58:26.307Z,100.4
2023-03-18T09:59:34.626Z,100.4
2023-03-18T10:00:43.203Z,11.5
2023-03-18T10:01:51.510Z,11.5
2023-03-18T10:02:59.872Z,11.5
2023-03-18T10:04:08.486Z,6.5
2023-03-18T10:05:16.752Z,6.5
2023-03-18T10:06:25.065Z,6.5
2023-03-18T10:07:33.601Z,2.8
2023-03-18T10:08:41.934Z,2.8
2023-03-18T10:09:50.269Z,2.8
2023-03-18T10:10:58.818Z,3.1
2023-03-18T10:12:07.200Z,3.1
2023-03-18T10:13:15.512Z,3.1
2023-03-18T10:14:24.061Z,38.900002
2023-03-18T10:15:32.813Z,38.900002
2023-03-18T10:16:40.786Z,38.900002
2023-03-18T10:17:49.304Z,2.3
2023-03-18T10:18:57.615Z,2.3
2023-03-18T10:20:05.927Z,2.3
2023-03-18T10:21:14.476Z,3.2
2023-03-18T10:22:22.805Z,3.2
2023-03-18T10:23:31.134Z,3.2
2023-03-18T10:24:39.679Z,4.5
2023-03-18T10:25:48.018Z,4.5
2023-03-18T10:26:56.343Z,4.5
2023-03-18T10:28:04.882Z,3.2
2023-03-18T10:29:13.199Z,3.2
2023-03-18T10:30:21.545Z,3.2
2023-03-18T10:31:30.231Z,4.3
2023-03-18T10:32:48.904Z,4.3
2023-03-18T10:33:46.767Z,4.3
2023-03-18T10:34:55.310Z,2.6
2023-03-18T10:36:03.657Z,2.6
2023-03-18T10:37:11.952Z,2.6
2023-03-18T10:38:20.514Z,36.599998
2023-03-18T10:39:28.823Z,36.599998
2023-03-18T10:40:37.155Z,36.599998
2023-03-18T10:41:45.693Z,7.7
2023-03-18T10:42:54.039Z,7.7
2023-03-18T10:44:02.384Z,7.7
2023-03-18T10:45:10.932Z,2.9
2023-03-18T10:46:19.301Z,2.9
2023-03-18T10:47:27.609Z,2.9
2023-03-18T10:48:36.160Z,11
2023-03-18T10:49:44.459Z,11
2023-03-18T10:50:52.823Z,11
2023-03-18T10:52:01.371Z,2.8
2023-03-18T10:53:09.711Z,2.8
2023-03-18T10:54:18.059Z,2.8
2023-03-18T10:55:26.597Z,3.3
2023-03-18T10:56:34.931Z,3.3
2023-03-18T10:57:43.299Z,3.3
2023-03-18T10:58:51.789Z,8.7
2023-03-18T11:00:00.128Z,8.7
2023-03-18T11:01:08.458Z,8.7
2023-03-18T11:02:17.006Z,5.3
2023-03-18T11:03:25.322Z,5.3
2023-03-18T11:04:33.670Z,5.3
2023-03-18T11:05:42.202Z,7.5
2023-03-18T11:06:50.520Z,7.5
2023-03-18T11:07:58.850Z,7.5
2023-03-18T11:09:07.383Z,3.8
2023-03-18T11:10:15.722Z,3.8
2023-03-18T11:11:24.038Z,3.8
2023-03-18T11:12:32.585Z,4.4
2023-03-18T11:13:40.910Z,4.4
2023-03-18T11:14:49.239Z,4.4
2023-03-18T11:15:57.792Z,5.6
2023-03-18T11:17:06.134Z,5.6
2023-03-18T11:18:14.476Z,5.6
2023-03-18T11:19:23.012Z,3.3
2023-03-18T11:20:31.700Z,3.3
2023-03-18T11:21:39.682Z,3.3
2023-03-18T11:22:48.265Z,3.7
2023-03-18T11:23:59.622Z,3.7
2023-03-18T11:25:07.956Z,3.7
2023-03-18T11:26:16.499Z,2.9
2023-03-18T11:27:24.846Z,2.9
2023-03-18T11:28:33.172Z,2.9
2023-03-18T11:29:41.720Z,4.2
2023-03-18T11:30:50.055Z,4.2
2023-03-18T11:31:58.523Z,4.2
2023-03-18T11:33:07.002Z,2.6
2023-03-18T11:34:15.268Z,2.6
2023-03-18T11:35:23.618Z,2.6
2023-03-18T11:36:32.205Z,1.8
2023-03-18T11:37:40.494Z,1.8
2023-03-18T11:38:48.855Z,1.8
2023-03-18T11:39:59.162Z,2.8
2023-03-18T11:41:05.757Z,2.8
2023-03-18T11:42:14.085Z,2.8
2023-03-18T11:43:22.648Z,2.8
2023-03-18T11:44:30.980Z,2.8
2023-03-18T11:45:39.335Z,2.8
2023-03-18T11:46:47.935Z,1.9
2023-03-18T11:47:56.193Z,1.9
2023-03-18T11:49:04.569Z,1.9
2023-03-18T11:50:13.116Z,1.7
2023-03-18T11:51:21.453Z,1.7
2023-03-18T11:52:29.840Z,1.7
2023-03-18T11:53:38.386Z,2.2
2023-03-18T11:54:46.715Z,2.2
2023-03-18T11:55:55.057Z,2.2
2023-03-18T11:57:03.593Z,1.9
2023-03-18T11:58:11.959Z,1.9
2023-03-18T11:59:20.295Z,1.9
2023-03-18T12:00:30.368Z,1.6
2023-03-18T12:01:38.745Z,1.6
2023-03-18T12:02:47.088Z,1.6
2023-03-18T12:03:55.621Z,1.4
2023-03-18T12:05:03.974Z,1.4
2023-03-18T12:06:12.278Z,1.4
2023-03-18T12:07:20.826Z,1.6
2023-03-18T12:08:29.174Z,1.6
2023-03-18T12:09:37.468Z,1.6
2023-03-18T12:10:46.021Z,2.2
2023-03-18T12:11:54.339Z,2.2
2023-03-18T12:13:02.668Z,2.2
2023-03-18T12:14:11.206Z,1.2
2023-03-18T12:15:19.555Z,1.2
2023-03-18T12:16:27.953Z,1.2
2023-03-18T12:17:36.429Z,1.4
2023-03-18T12:18:44.743Z,1.4
2023-03-18T12:19:53.074Z,1.4
2023-03-18T12:21:01.629Z,1.3
2023-03-18T12:22:10.007Z,1.3
2023-03-18T12:23:18.320Z,1.3
2023-03-18T12:24:26.887Z,1.1
2023-03-18T12:25:35.206Z,1.1
2023-03-18T12:26:43.528Z,1.1
2023-03-18T12:27:52.077Z,1.5
2023-03-18T12:29:01.713Z,1.5
2023-03-18T12:30:08.712Z,1.5
2023-03-18T12:31:17.330Z,1.6
2023-03-18T12:32:25.598Z,1.6
2023-03-18T12:33:33.940Z,1.6
2023-03-18T12:34:42.472Z,1.3
2023-03-18T12:35:50.862Z,1.3
2023-03-18T12:36:59.119Z,1.3
2023-03-18T12:38:07.665Z,5.6
2023-03-18T12:39:15.994Z,5.6
2023-03-18T12:40:24.346Z,5.6
2023-03-18T12:41:33.149Z,3.5
2023-03-18T12:42:41.202Z,3.5
2023-03-18T12:43:49.576Z,3.5
2023-03-18T12:44:58.152Z,4.1
2023-03-18T12:46:06.505Z,4.1
2023-03-18T12:47:14.775Z,4.1
2023-03-18T12:48:36.952Z,2.3
2023-03-18T12:49:31.663Z,2.3
2023-03-18T12:50:40.013Z,2.3
2023-03-18T12:51:48.564Z,3.2
2023-03-18T12:52:56.878Z,3.2
2023-03-18T12:54:05.225Z,3.2
2023-03-18T12:55:13.758Z,2.3
2023-03-18T12:56:22.112Z,2.3
2023-03-18T12:57:30.424Z,2.3
2023-03-18T12:58:38.994Z,2.5
2023-03-18T12:59:47.319Z,2.5
2023-03-18T13:00:55.780Z,2.5
2023-03-18T13:02:04.315Z,2.1
2023-03-18T13:03:12.608Z,2.1
2023-03-18T13:04:20.928Z,2.1
2023-03-18T13:05:29.514Z,2.1
2023-03-18T13:06:37.862Z,2.1
2023-03-18T13:07:46.208Z,2.1
2023-03-18T13:08:54.775Z,1.8
2023-03-18T13:10:03.117Z,1.8
2023-03-18T13:11:12.266Z,1.8
2023-03-18T13:12:20.066Z,1.9
2023-03-18T13:13:28.382Z,1.9
2023-03-18T13:14:39.245Z,1.9
2023-03-18T13:15:45.264Z,1.8
2023-03-18T13:16:53.655Z,1.8
2023-03-18T13:18:01.925Z,1.8
2023-03-18T13:19:10.484Z,2
2023-03-18T13:20:18.817Z,2
2023-03-18T13:21:27.140Z,2
2023-03-18T13:22:35.675Z,1.7
2023-03-18T13:23:44.010Z,1.7
2023-03-18T13:24:52.370Z,1.7
2023-03-18T13:26:00.926Z,1.7
2023-03-18T13:27:09.266Z,1.7
2023-03-18T13:28:17.612Z,1.7
2023-03-18T13:29:26.176Z,1.8
2023-03-18T13:30:34.869Z,1.8
2023-03-18T13:31:42.883Z,1.8
2023-03-18T13:32:51.437Z,1.6
2023-03-18T13:33:59.810Z,1.6
2023-03-18T13:35:08.131Z,1.6
2023-03-18T13:36:16.736Z,1.8
2023-03-18T13:37:25.087Z,1.8
2023-03-18T13:38:33.400Z,1.8
2023-03-18T13:39:41.967Z,1.8
2023-03-18T13:40:50.309Z,1.8
2023-03-18T13:41:58.650Z,1.8
2023-03-18T13:43:07.189Z,1.8
2023-03-18T13:44:15.588Z,1.8
2023-03-18T13:45:23.890Z,1.8
2023-03-18T13:46:32.471Z,2.1
2023-03-18T13:47:40.867Z,2.1
2023-03-18T13:48:49.225Z,2.1
2023-03-18T13:49:57.771Z,7.1
2023-03-18T13:51:06.122Z,7.1
2023-03-18T13:52:14.442Z,7.1
2023-03-18T13:53:22.990Z,2.7
2023-03-18T13:54:31.322Z,2.7
2023-03-18T13:55:39.680Z,2.7
2023-03-18T13:56:48.201Z,1.6
2023-03-18T13:57:56.578Z,1.6
2023-03-18T13:59:04.890Z,1.6
2023-03-18T14:00:14.819Z,1.8
2023-03-18T14:01:21.808Z,1.8
2023-03-18T14:02:30.167Z,1.8
2023-03-18T14:03:38.877Z,2
2023-03-18T14:04:47.089Z,2
2023-03-18T14:05:55.430Z,2
2023-03-18T14:07:04.037Z,1.8
2023-03-18T14:08:12.350Z,1.8
2023-03-18T14:09:20.716Z,1.8
2023-03-18T14:10:29.269Z,2.4
2023-03-18T14:11:37.624Z,2.4
2023-03-18T14:12:45.961Z,2.4
2023-03-18T14:13:54.522Z,2
2023-03-18T14:15:02.870Z,2
2023-03-18T14:16:11.312Z,2
2023-03-18T14:17:19.739Z,2.1
2023-03-18T14:18:28.378Z,2.1
2023-03-18T14:19:36.551Z,2.1
2023-03-18T14:20:45.124Z,3.4
2023-03-18T14:21:53.504Z,3.4
2023-03-18T14:23:01.777Z,3.4
2023-03-18T14:24:10.303Z,2.8
2023-03-18T14:25:18.669Z,2.8
2023-03-18T14:26:27.006Z,2.8
2023-03-18T14:27:35.531Z,1.9
2023-03-18T14:28:43.884Z,1.9
2023-03-18T14:29:52.210Z,1.9
2023-03-18T14:31:00.878Z,7.5
2023-03-18T14:32:09.144Z,7.5
2023-03-18T14:33:17.477Z,7.5
2023-03-18T14:34:26.022Z,3.5
2023-03-18T14:35:34.647Z,3.5
2023-03-18T14:36:42.706Z,3.5
2023-03-18T14:37:51.245Z,3.2
2023-03-18T14:38:59.627Z,3.2
2023-03-18T14:40:07.958Z,3.2
2023-03-18T14:41:16.531Z,3.7
2023-03-18T14:42:24.853Z,3.7
2023-03-18T14:43:33.191Z,3.7
2023-03-18T14:44:41.730Z,2.9
2023-03-18T14:45:50.087Z,2.9
2023-03-18T14:46:58.516Z,2.9
2023-03-18T14:48:06.977Z,5.2
2023-03-18T14:49:15.284Z,5.2
2023-03-18T14:50:23.619Z,5.2
2023-03-18T14:51:32.188Z,4.2
2023-03-18T14:52:40.527Z,4.2
2023-03-18T14:53:49.072Z,4.2
2023-03-18T14:54:57.420Z,2.3
2023-03-18T14:56:05.760Z,2.3
2023-03-18T14:57:14.095Z,2.3
2023-03-18T14:58:22.663Z,5.5
2023-03-18T14:59:30.988Z,5.5
2023-03-18T15:00:39.360Z,5.5
2023-03-18T15:01:47.903Z,6.4
2023-03-18T15:02:57.336Z,6.4
2023-03-18T15:04:04.575Z,6.4
2023-03-18T15:05:13.189Z,3.3
2023-03-18T15:06:21.512Z,3.3
2023-03-18T15:40:46.793Z,0
2023-03-18T15:41:55.152Z,0
2023-03-18T15:43:03.540Z,0
2023-03-18T15:44:12.058Z,6
2023-03-18T15:45:20.413Z,6
2023-03-18T15:46:28.771Z,6
2023-03-18T15:47:37.343Z,2.9
2023-03-18T15:48:45.663Z,2.9
2023-03-18T15:49:54.018Z,2.9
2023-03-18T15:51:02.565Z,2.6
2023-03-18T15:52:10.905Z,2.6
2023-03-18T15:53:19.222Z,2.6
2023-03-18T15:54:27.851Z,2.3
2023-03-18T15:55:36.208Z,2.3
2023-03-18T15:56:44.604Z,2.3
2023-03-18T15:57:53.143Z,6.5
2023-03-18T15:59:01.557Z,6.5
2023-03-18T16:00:09.925Z,6.5
2023-03-18T16:01:18.628Z,2.6
2023-03-18T16:02:26.833Z,2.6
2023-03-18T16:03:35.192Z,2.6
2023-03-18T16:04:43.774Z,2.3
2023-03-18T16:05:52.122Z,2.3
2023-03-18T16:07:00.467Z,2.3
2023-03-18T16:08:09.037Z,2.2
2023-03-18T16:09:17.367Z,2.2
2023-03-18T16:10:25.750Z,2.2
2023-03-18T16:11:34.291Z,3.7
2023-03-18T16:12:42.672Z,3.7
2023-03-18T16:13:51.023Z,3.7
2023-03-18T16:14:59.587Z,6.4
2023-03-18T16:16:07.981Z,6.4
2023-03-18T16:17:16.271Z,6.4
2023-03-18T16:18:24.849Z,9.4
2023-03-18T16:19:33.164Z,9.4